METAR Data
IDs: Format: Raw Decoded Include TAF

Data at: 1408 UTC 14 Dec 2019

KHRO 141353Z AUTO 31009KT 8SM OVC011 05/02 A2982 RMK AO2 SLP102 T00500017
KHRO 141253Z AUTO 30009KT 9SM OVC012 05/02 A2981 RMK AO2 SLP097 T00500022
KHRO 141153Z AUTO 30009G17KT 10SM OVC014 06/02 A2978 RMK AO2 SLP088 T00560022 10100 20056 53016
KHRO 141144Z AUTO 29010G17KT 10SM BKN014 06/02 A2978 RMK AO2 T00560022
KHRO 141053Z AUTO 28010KT 10SM CLR 07/03 A2974 RMK AO2 SLP072 T00670028
KHRO 140953Z AUTO 28007KT 10SM CLR 08/03 A2973 RMK AO2 SLP067 T00780033
KHRO 140853Z AUTO 31008KT 10SM SCT100 09/03 A2974 RMK AO2 SLP066 T00940033 56018
KHRO 140753Z AUTO 25007KT 10SM FEW120 08/03 A2976 RMK AO2 SLP076 T00780033
KHRO 140653Z AUTO 26003KT 10SM CLR 07/03 A2976 RMK AO2 SLP077 T00670028
KHRO 140553Z AUTO 28004KT 10SM CLR 07/02 A2979 RMK AO2 SLP087 T00720022 10072 20028 401170028 58010
KHRO 140453Z AUTO 26004KT 10SM BKN110 06/01 A2980 RMK AO2 SLP093 T00610011
KHRO 140353Z AUTO 00000KT 10SM OVC110 04/00 A2982 RMK AO2 SLP101 T00440000
KHRO 140253Z AUTO 16003KT 10SM CLR 04/00 A2982 RMK AO2 SLP102 T00440000 50003
KHRO 140153Z AUTO 00000KT 10SM CLR 06/00 A2983 RMK AO2 SLP106 T00560000
KHRO 140053Z AUTO 00000KT 10SM CLR 05/00 A2982 RMK AO2 SLP103 T00500000
KHRO 132353Z AUTO 00000KT 10SM CLR 06/00 A2981 RMK AO2 SLP098 T00610000 10117 20061 57002
KHRO 132253Z AUTO 15004KT 10SM CLR 08/00 A2981 RMK AO2 SLP098 T00830000
KHRO 132153Z AUTO 14003KT 10SM CLR 11/00 A2982 RMK AO2 SLP098 T01110000
KHRO 132053Z AUTO VRB03KT 10SM CLR 11/00 A2982 RMK AO2 SLP098 T01110000 56023
KHRO 131953Z AUTO 00000KT 10SM CLR 11/00 A2983 RMK AO2 SLP102 T01060000
KHRO 131853Z AUTO VRB04KT 10SM CLR 11/01 A2985 RMK AO2 SLP108 T01060006
KHRO 131753Z AUTO 00000KT 10SM CLR 10/00 A2989 RMK AO2 SLP122 T01000000 10100 20033 58020
KHRO 131553Z AUTO 14003KT 10SM OVC049 06/M02 A2994 RMK AO2 SLP143 T00611017
KHRO 131453Z AUTO 15003KT 10SM OVC045 04/M02 A2995 RMK AO2 SLP146 T00441022 58002
KHRO 131353Z AUTO 13004KT 10SM OVC047 03/M03 A2995 RMK AO2 SLP147 T00331028
KHRO 131253Z AUTO 13004KT 10SM OVC050 03/M03 A2995 RMK AO2 SLP148 T00331033
KHRO 131153Z AUTO 14003KT 10SM SCT055 OVC120 03/M03 A2995 RMK AO2 SLP147 T00331033 10039 20028 56016
KHRO 131053Z AUTO 15003KT 10SM BKN050 03/M03 A2996 RMK AO2 SLP147 T00281033
KHRO 130953Z AUTO 13005KT 10SM CLR 03/M04 A2998 RMK AO2 SLP153 T00331039
KHRO 130853Z AUTO 16005KT 10SM FEW120 03/M04 A3000 RMK AO2 SLP160 T00331039 56018
KHRO 130753Z AUTO 17004KT 10SM CLR 04/M04 A3002 RMK AO2 SLP165 T00391039
KHRO 130653Z AUTO 17004KT 10SM CLR 03/M04 A3003 RMK AO2 SLP170 T00331039
KHRO 130553Z AUTO 00000KT 10SM SCT070 04/M05 A3006 RMK AO2 SLP180 T00391050 10061 20028 401220022 56005
KHRO 130453Z AUTO 13004KT 10SM FEW070 03/M05 A3006 RMK AO2 SLP182 T00331050
KHRO 130353Z AUTO 15007KT 10SM CLR 04/M06 A3007 RMK AO2 SLP186 T00391056
KHRO 130253Z AUTO 16008KT 10SM CLR 04/M06 A3007 RMK AO2 SLP187 T00441056 58005